Time;durP1;ratioP1;P1;durP2;ratioP2;P2;SDS_P1;SDS_P2;PMS_P1;PMS_P2;Temp;Humidity;BMP_temperature;BMP_pressure;BME280_temperature;BME280_humidity;BME280_pressure;Samples;Min_cycle;Max_cycle;Signal;HPM_P1;HPM_P2
2023/06/18 00:00:58;;;;;;;30.55;24.67;;;16.10;99.90;;;;;;5043116;28;20252;-57
2023/06/18 00:03:25;;;;;;;31.40;24.05;;;16.10;99.90;;;;;;5042528;28;20337;-51
2023/06/18 00:05:52;;;;;;;28.52;23.73;;;16.10;99.90;;;;;;5043197;28;20140;-53
2023/06/18 00:08:18;;;;;;;28.10;24.67;;;16.20;99.90;;;;;;5043015;28;20071;-53
2023/06/18 00:10:44;;;;;;;31.55;26.25;;;16.20;99.90;;;;;;5043746;28;20040;-55
2023/06/18 00:13:09;;;;;;;33.10;26.00;;;16.10;99.90;;;;;;5043087;28;20480;-58
2023/06/18 00:15:35;;;;;;;30.73;25.25;;;16.10;99.90;;;;;;5043000;28;20048;-49
2023/06/18 00:18:00;;;;;;;32.17;24.77;;;16.00;99.90;;;;;;5042966;28;20044;-50
2023/06/18 00:20:26;;;;;;;33.25;26.08;;;16.00;99.90;;;;;;5043604;28;20045;-57
2023/06/18 00:22:53;;;;;;;31.05;26.60;;;16.20;99.90;;;;;;5043474;28;20179;-51
2023/06/18 00:25:19;;;;;;;32.53;26.05;;;16.30;99.90;;;;;;5041515;28;20261;-50
2023/06/18 00:27:46;;;;;;;30.52;25.90;;;16.00;99.90;;;;;;5042669;28;20049;-53
2023/06/18 00:30:12;;;;;;;29.83;25.83;;;15.90;99.90;;;;;;5043148;28;20456;-54
2023/06/18 00:32:43;;;;;;;32.85;27.10;;;15.80;99.90;;;;;;5042681;28;20068;-57
2023/06/18 00:35:10;;;;;;;36.30;28.17;;;15.80;99.90;;;;;;5043009;28;20083;-53
2023/06/18 00:37:36;;;;;;;31.05;26.25;;;15.70;99.90;;;;;;5043285;28;20106;-55
2023/06/18 00:40:02;;;;;;;31.17;26.27;;;15.70;99.90;;;;;;5043191;28;20431;-50
2023/06/18 00:42:28;;;;;;;31.95;26.80;;;15.70;99.90;;;;;;5041892;28;20585;-57
2023/06/18 00:44:54;;;;;;;30.42;25.83;;;15.70;99.90;;;;;;5042669;28;20319;-58
2023/06/18 00:47:21;;;;;;;30.50;24.55;;;15.70;99.90;;;;;;5042596;28;20443;-57
2023/06/18 00:49:47;;;;;;;28.95;25.60;;;15.70;99.90;;;;;;5041906;28;20056;-52
2023/06/18 00:52:14;;;;;;;30.08;25.52;;;15.70;99.90;;;;;;5042820;28;20131;-51
2023/06/18 00:54:44;;;;;;;30.88;25.95;;;15.70;99.90;;;;;;5043046;28;20044;-51
2023/06/18 00:57:13;;;;;;;31.58;25.63;;;15.70;99.90;;;;;;5042235;28;20048;-52
2023/06/18 00:59:42;;;;;;;33.55;26.05;;;15.90;99.90;;;;;;5041823;28;20044;-54
2023/06/18 01:02:08;;;;;;;38.63;29.83;;;15.70;99.90;;;;;;5042225;28;20057;-53
2023/06/18 01:04:35;;;;;;;34.17;30.30;;;15.70;99.90;;;;;;5111078;22;21066;-51
2023/06/18 01:07:02;;;;;;;34.13;28.52;;;15.70;99.90;;;;;;4989284;28;20130;-52
2023/06/18 01:09:29;;;;;;;32.47;27.48;;;15.70;99.90;;;;;;4994125;28;20072;-52
2023/06/18 01:11:55;;;;;;;33.45;26.13;;;15.70;99.90;;;;;;4991130;28;20481;-49
2023/06/18 01:14:26;;;;;;;32.70;25.48;;;15.70;99.90;;;;;;5001555;28;20034;-56
2023/06/18 01:16:55;;;;;;;32.80;26.30;;;15.60;99.90;;;;;;5005868;28;20417;-51
2023/06/18 01:19:42;;;;;;;33.85;27.95;;;15.50;99.90;;;;;;5006136;28;20117;-53
2023/06/18 01:22:33;;;;;;;36.35;28.50;;;15.40;99.90;;;;;;4989847;28;20401;-51
2023/06/18 01:25:03;;;;;;;34.70;27.70;;;15.40;99.90;;;;;;4985224;28;20049;-56
2023/06/18 01:27:33;;;;;;;33.83;27.77;;;15.30;99.90;;;;;;4984679;28;20053;-56
2023/06/18 01:30:00;;;;;;;32.95;27.42;;;15.30;99.90;;;;;;4990150;28;20057;-48
2023/06/18 01:32:26;;;;;;;34.83;28.58;;;15.20;99.90;;;;;;5005426;28;20137;-56
2023/06/18 01:34:57;;;;;;;33.17;26.90;;;15.30;99.90;;;;;;5005604;28;20138;-57
2023/06/18 01:37:45;;;;;;;34.15;27.55;;;15.20;99.90;;;;;;5005341;28;20042;-58
2023/06/18 01:40:20;;;;;;;31.55;26.55;;;15.20;99.90;;;;;;5005599;28;20042;-51
2023/06/18 01:42:57;;;;;;;29.52;25.08;;;15.20;99.90;;;;;;5003660;28;20053;-53
2023/06/18 01:45:28;;;;;;;27.42;24.50;;;15.10;99.90;;;;;;5003911;28;20085;-51
2023/06/18 01:48:00;;;;;;;28.13;24.05;;;15.20;99.90;;;;;;5003936;28;20062;-50
2023/06/18 01:50:27;;;;;;;25.42;22.67;;;15.20;99.90;;;;;;5003870;28;20042;-55
2023/06/18 01:52:53;;;;;;;23.77;20.15;;;15.10;99.90;;;;;;5003427;28;20839;-52
2023/06/18 01:55:20;;;;;;;22.15;19.85;;;15.00;99.90;;;;;;5003918;28;20038;-50
2023/06/18 01:57:46;;;;;;;26.35;18.63;;;14.90;99.90;;;;;;5003630;28;20099;-51
2023/06/18 02:00:12;;;;;;;25.05;18.00;;;14.90;99.90;;;;;;4999977;28;20137;-55
2023/06/18 02:02:37;;;;;;;23.45;17.77;;;14.80;99.90;;;;;;4994605;28;20412;-55
2023/06/18 02:05:03;;;;;;;21.08;18.67;;;14.80;99.90;;;;;;4984675;28;20105;-56
2023/06/18 02:07:29;;;;;;;211.93;21.40;;;14.70;99.90;;;;;;4984978;28;20046;-48
2023/06/18 02:09:54;;;;;;;54.22;19.13;;;14.70;99.90;;;;;;4985283;28;20081;-54
2023/06/18 02:12:20;;;;;;;83.25;20.38;;;14.60;99.90;;;;;;4982841;28;20061;-53
2023/06/18 02:14:46;;;;;;;139.15;22.45;;;14.50;99.90;;;;;;4984368;28;20039;-54
2023/06/18 02:17:11;;;;;;;221.30;22.88;;;14.40;99.90;;;;;;4983821;28;20073;-59
2023/06/18 02:19:37;;;;;;;190.50;22.85;;;14.50;99.90;;;;;;4985582;28;20047;-55
2023/06/18 02:22:03;;;;;;;104.38;21.48;;;14.40;99.90;;;;;;4984241;28;20576;-55
2023/06/18 02:24:28;;;;;;;201.38;23.77;;;14.40;99.90;;;;;;4984552;28;20059;-49
2023/06/18 02:26:54;;;;;;;236.40;23.60;;;14.30;99.90;;;;;;4984947;28;20064;-52
2023/06/18 02:29:20;;;;;;;71.40;20.40;;;14.30;99.90;;;;;;4982568;28;20490;-53
2023/06/18 02:31:45;;;;;;;178.85;22.20;;;14.20;99.90;;;;;;4984681;28;20477;-51
2023/06/18 02:34:11;;;;;;;48.20;20.10;;;14.30;99.90;;;;;;4999108;28;20053;-58
2023/06/18 02:36:38;;;;;;;91.35;20.55;;;14.30;99.90;;;;;;4985024;28;20042;-47
2023/06/18 02:39:04;;;;;;;81.20;20.65;;;14.30;99.90;;;;;;4983884;28;20042;-51
2023/06/18 02:41:30;;;;;;;38.70;19.95;;;14.30;99.90;;;;;;4984389;28;20049;-57
2023/06/18 02:43:55;;;;;;;96.30;21.02;;;14.20;99.90;;;;;;4984372;28;20109;-53
2023/06/18 02:46:21;;;;;;;106.47;21.60;;;14.20;99.90;;;;;;4984512;28;20080;-50
2023/06/18 02:48:46;;;;;;;85.72;21.05;;;14.10;99.90;;;;;;4984309;28;20046;-52
2023/06/18 02:51:12;;;;;;;132.60;20.27;;;14.10;99.90;;;;;;4984360;28;20050;-53
2023/06/18 02:53:37;;;;;;;94.50;22.23;;;14.10;99.90;;;;;;4984517;28;20573;-57
2023/06/18 02:56:03;;;;;;;78.70;22.98;;;14.00;99.90;;;;;;4983753;28;20069;-55
2023/06/18 02:58:29;;;;;;;46.53;22.65;;;13.90;99.90;;;;;;4982942;28;20134;-56
2023/06/18 03:01:02;;;;;;;56.70;21.60;;;14.00;99.90;;;;;;4984395;28;20078;-55
2023/06/18 03:03:28;;;;;;;79.47;21.95;;;14.00;99.90;;;;;;4983813;28;20559;-58
2023/06/18 03:05:53;;;;;;;117.90;19.90;;;13.90;99.90;;;;;;4983286;28;20269;-50
2023/06/18 03:08:19;;;;;;;81.10;18.63;;;14.00;99.90;;;;;;4984335;28;20100;-50
2023/06/18 03:10:45;;;;;;;53.50;17.25;;;13.90;99.90;;;;;;4983682;28;20054;-46
2023/06/18 03:13:11;;;;;;;40.70;17.38;;;13.90;99.90;;;;;;4981199;28;20140;-50
2023/06/18 03:15:37;;;;;;;49.65;18.27;;;13.90;99.90;;;;;;4984278;28;20126;-46
2023/06/18 03:18:03;;;;;;;40.65;18.25;;;13.90;99.90;;;;;;4984335;28;20073;-57
2023/06/18 03:20:28;;;;;;;62.00;17.92;;;13.90;99.90;;;;;;4984039;28;20042;-50
2023/06/18 03:22:55;;;;;;;79.88;17.55;;;13.90;99.90;;;;;;4983541;28;20042;-54
2023/06/18 03:25:21;;;;;;;42.63;17.25;;;13.90;99.90;;;;;;4983026;28;20077;-52
2023/06/18 03:27:48;;;;;;;57.13;17.45;;;13.90;99.90;;;;;;4982088;28;20046;-50
2023/06/18 03:30:14;;;;;;;27.80;17.55;;;14.00;99.90;;;;;;4982887;28;20042;-54
2023/06/18 03:32:40;;;;;;;41.45;17.95;;;14.00;99.90;;;;;;4983245;28;20038;-51
2023/06/18 03:35:06;;;;;;;42.28;18.00;;;14.20;99.90;;;;;;4983513;28;20042;-57
2023/06/18 03:37:32;;;;;;;55.05;17.35;;;14.10;99.90;;;;;;4982126;28;20054;-57
2023/06/18 03:39:58;;;;;;;34.08;16.98;;;14.20;99.90;;;;;;4983548;28;20515;-57
2023/06/18 03:42:24;;;;;;;42.58;17.73;;;14.10;99.90;;;;;;4981254;28;20046;-55
2023/06/18 03:44:50;;;;;;;36.83;17.83;;;14.20;99.90;;;;;;4983820;28;20492;-50
2023/06/18 03:47:17;;;;;;;35.88;18.23;;;14.00;99.90;;;;;;4982811;28;20046;-52
2023/06/18 03:49:42;;;;;;;41.25;18.42;;;14.00;99.90;;;;;;4984597;28;20539;-51
2023/06/18 03:52:08;;;;;;;56.83;18.77;;;14.00;99.90;;;;;;4984107;28;20049;-57
2023/06/18 03:54:35;;;;;;;52.78;18.73;;;14.00;99.90;;;;;;4982932;28;20065;-58
2023/06/18 03:57:00;;;;;;;41.47;19.00;;;14.10;99.90;;;;;;4982907;28;20050;-58
2023/06/18 03:59:26;;;;;;;39.25;18.25;;;14.10;99.90;;;;;;4983111;28;20053;-51
2023/06/18 04:01:51;;;;;;;53.92;18.27;;;14.10;99.90;;;;;;4982711;28;20053;-55
2023/06/18 04:04:17;;;;;;;28.20;17.95;;;14.20;99.90;;;;;;4982771;28;20034;-51
2023/06/18 04:06:43;;;;;;;37.45;17.85;;;14.20;99.90;;;;;;4984162;28;20531;-50
2023/06/18 04:09:09;;;;;;;46.47;16.67;;;14.30;99.90;;;;;;4985557;28;20476;-58
2023/06/18 04:11:38;;;;;;;42.80;17.38;;;14.30;99.90;;;;;;4986997;28;20072;-57
2023/06/18 04:14:04;;;;;;;27.88;19.45;;;14.30;99.90;;;;;;4986587;28;20136;-57
2023/06/18 04:16:29;;;;;;;82.70;18.35;;;14.20;99.90;;;;;;4986412;28;20532;-56
2023/06/18 04:18:55;;;;;;;50.10;18.48;;;14.20;99.90;;;;;;4987150;28;20046;-56
2023/06/18 04:21:20;;;;;;;59.03;18.48;;;14.30;99.90;;;;;;4986653;28;20149;-52
2023/06/18 04:23:46;;;;;;;26.33;17.40;;;14.30;99.90;;;;;;4987333;28;20046;-49
2023/06/18 04:26:12;;;;;;;21.58;17.25;;;14.30;99.90;;;;;;4987287;28;20050;-50
2023/06/18 04:28:37;;;;;;;44.88;18.10;;;14.30;99.90;;;;;;4985522;28;20129;-58
2023/06/18 04:31:03;;;;;;;32.33;18.58;;;14.40;99.90;;;;;;4986983;28;20057;-58
2023/06/18 04:33:29;;;;;;;31.88;18.73;;;14.40;99.90;;;;;;4986177;28;20121;-56
2023/06/18 04:35:54;;;;;;;23.50;18.95;;;14.60;99.90;;;;;;4986744;28;20042;-50
2023/06/18 04:38:21;;;;;;;23.73;19.80;;;14.50;99.90;;;;;;4986796;28;20035;-48
2023/06/18 04:40:48;;;;;;;20.30;18.13;;;14.60;99.90;;;;;;4986821;28;20073;-50
2023/06/18 04:43:13;;;;;;;21.95;19.17;;;14.70;99.90;;;;;;4986158;28;20105;-52
2023/06/18 04:45:39;;;;;;;20.67;18.38;;;14.60;99.90;;;;;;4985846;28;20034;-55
2023/06/18 04:48:05;;;;;;;21.17;18.88;;;14.70;99.90;;;;;;4987138;28;20614;-58
2023/06/18 04:50:31;;;;;;;21.55;18.00;;;14.80;99.90;;;;;;4986089;28;20105;-57
2023/06/18 04:52:56;;;;;;;19.92;17.85;;;14.90;99.90;;;;;;4984336;28;20046;-57
2023/06/18 04:55:22;;;;;;;20.83;18.63;;;14.90;99.90;;;;;;4986857;28;20045;-55
2023/06/18 04:57:48;;;;;;;19.52;17.48;;;15.20;99.90;;;;;;4986300;28;20042;-49
2023/06/18 05:00:14;;;;;;;22.33;16.98;;;15.00;99.90;;;;;;4987041;28;20880;-52
2023/06/18 05:02:40;;;;;;;31.13;17.92;;;15.00;99.90;;;;;;4986479;28;20070;-52
2023/06/18 05:05:06;;;;;;;31.67;18.85;;;15.10;99.90;;;;;;4986245;28;20564;-58
2023/06/18 05:07:31;;;;;;;24.23;18.58;;;15.00;99.90;;;;;;4985988;28;20503;-56
2023/06/18 05:09:57;;;;;;;31.40;19.67;;;15.10;99.90;;;;;;4984955;28;20520;-58
2023/06/18 05:12:23;;;;;;;34.38;19.60;;;15.20;99.90;;;;;;4985338;28;20041;-53
2023/06/18 05:14:48;;;;;;;23.73;19.17;;;15.10;99.90;;;;;;4986545;28;20125;-52
2023/06/18 05:17:14;;;;;;;20.85;18.65;;;15.20;99.90;;;;;;4987006;28;20484;-52
2023/06/18 05:19:39;;;;;;;20.33;18.23;;;15.30;99.90;;;;;;4984251;28;20042;-58
2023/06/18 05:22:05;;;;;;;23.10;18.90;;;15.50;99.90;;;;;;4985984;28;20046;-58
2023/06/18 05:24:31;;;;;;;23.20;19.05;;;15.60;99.90;;;;;;4985385;28;20065;-56
2023/06/18 05:26:57;;;;;;;22.25;19.65;;;15.70;99.90;;;;;;4985053;28;20074;-56
2023/06/18 05:29:23;;;;;;;24.38;18.98;;;15.70;99.90;;;;;;4985397;28;20069;-53
2023/06/18 05:31:48;;;;;;;22.58;19.23;;;15.70;99.90;;;;;;4986118;28;20093;-53
2023/06/18 05:34:14;;;;;;;22.05;19.65;;;15.70;99.90;;;;;;4984232;28;20046;-53
2023/06/18 05:36:39;;;;;;;22.92;20.27;;;15.70;99.90;;;;;;4984954;28;20112;-57
2023/06/18 05:39:05;;;;;;;24.10;20.88;;;15.70;99.90;;;;;;4985114;28;20087;-58
2023/06/18 05:41:30;;;;;;;23.27;20.15;;;15.70;99.90;;;;;;4984802;28;20038;-53
2023/06/18 05:43:56;;;;;;;27.20;21.52;;;15.70;99.90;;;;;;4984456;28;20092;-55
2023/06/18 05:46:21;;;;;;;24.77;21.23;;;15.70;99.90;;;;;;4985071;28;20073;-53
2023/06/18 05:48:47;;;;;;;23.42;20.20;;;15.80;99.90;;;;;;4985472;28;20045;-51
2023/06/18 05:51:13;;;;;;;24.40;21.80;;;15.90;99.90;;;;;;4985298;28;20089;-46
2023/06/18 05:53:38;;;;;;;28.27;23.02;;;16.00;99.90;;;;;;4984601;28;20038;-52
2023/06/18 05:56:04;;;;;;;25.65;22.80;;;16.10;99.90;;;;;;4985585;28;20501;-59
2023/06/18 05:58:29;;;;;;;27.20;22.70;;;16.20;99.90;;;;;;4984353;28;20061;-56
2023/06/18 06:00:55;;;;;;;26.02;23.23;;;16.20;99.90;;;;;;4985139;28;20050;-51
2023/06/18 06:03:21;;;;;;;24.95;22.33;;;16.20;99.90;;;;;;4984948;28;20043;-52
2023/06/18 06:05:46;;;;;;;24.42;21.83;;;16.30;99.90;;;;;;4993854;28;20101;-51
2023/06/18 06:08:12;;;;;;;25.25;21.63;;;16.40;99.90;;;;;;4988044;28;20502;-58
2023/06/18 06:10:37;;;;;;;25.77;22.38;;;16.30;99.90;;;;;;4984135;28;20045;-60
2023/06/18 06:13:03;;;;;;;27.15;23.15;;;16.30;99.90;;;;;;4984552;28;20053;-56
2023/06/18 06:15:29;;;;;;;23.88;21.13;;;16.40;99.90;;;;;;4999149;28;20396;-55
2023/06/18 06:17:55;;;;;;;25.02;22.33;;;16.60;99.90;;;;;;4984508;28;20057;-50
2023/06/18 06:20:21;;;;;;;25.33;22.45;;;16.70;99.90;;;;;;4983980;28;20040;-54
2023/06/18 06:22:47;;;;;;;23.83;21.33;;;17.10;99.90;;;;;;4981785;28;20481;-52
2023/06/18 06:25:12;;;;;;;23.65;20.27;;;17.70;99.90;;;;;;4998323;28;20049;-57
2023/06/18 06:27:38;;;;;;;20.88;18.60;;;18.30;99.90;;;;;;4982588;28;20456;-56
2023/06/18 06:30:06;;;;;;;22.75;20.42;;;18.40;99.90;;;;;;4984643;28;20048;-56
2023/06/18 06:32:33;;;;;;;22.98;19.52;;;18.50;99.90;;;;;;4984338;28;20051;-58
2023/06/18 06:34:59;;;;;;;21.75;19.50;;;18.80;99.90;;;;;;4983559;28;20469;-58
2023/06/18 06:37:26;;;;;;;20.48;18.38;;;19.10;99.90;;;;;;4999664;28;20038;-52
2023/06/18 06:39:52;;;;;;;22.70;17.27;;;19.70;99.90;;;;;;4984894;28;20061;-50
2023/06/18 06:42:18;;;;;;;21.65;18.52;;;20.30;99.90;;;;;;4983523;28;20568;-53
2023/06/18 06:44:43;;;;;;;21.20;17.65;;;20.40;99.90;;;;;;4983939;28;20050;-48
2023/06/18 06:47:09;;;;;;;22.15;19.55;;;20.40;99.90;;;;;;4983729;28;20048;-57
2023/06/18 06:49:35;;;;;;;21.35;18.25;;;20.40;99.90;;;;;;4984447;28;20385;-56
2023/06/18 06:52:01;;;;;;;21.52;19.13;;;20.20;99.90;;;;;;4983441;28;20146;-57
2023/06/18 06:54:26;;;;;;;22.23;19.80;;;20.10;99.90;;;;;;4985233;28;20046;-56
2023/06/18 06:56:52;;;;;;;22.90;20.42;;;20.00;99.90;;;;;;4983795;28;20062;-54
2023/06/18 06:59:17;;;;;;;22.63;20.05;;;19.90;99.90;;;;;;4984714;28;20038;-54
2023/06/18 07:01:43;;;;;;;22.75;20.17;;;19.80;99.90;;;;;;4982444;28;20058;-52
2023/06/18 07:04:10;;;;;;;27.45;21.45;;;20.00;99.90;;;;;;4984752;28;20046;-58
2023/06/18 07:06:38;;;;;;;24.55;21.52;;;20.20;99.90;;;;;;4998447;28;20072;-56
2023/06/18 07:09:07;;;;;;;25.02;20.98;;;20.10;99.90;;;;;;4999697;28;20100;-57
2023/06/18 07:11:36;;;;;;;22.67;19.63;;;20.30;99.90;;;;;;4991257;28;20471;-56
2023/06/18 07:14:02;;;;;;;25.95;19.80;;;20.60;99.90;;;;;;5014367;28;20059;-57
2023/06/18 07:16:28;;;;;;;22.70;19.77;;;20.90;99.90;;;;;;5020652;28;20045;-57
2023/06/18 07:18:53;;;;;;;21.98;19.45;;;21.20;99.90;;;;;;5023587;28;20096;-59
2023/06/18 07:21:19;;;;;;;22.58;18.27;;;21.50;99.90;;;;;;5023628;28;20107;-47
2023/06/18 07:23:45;;;;;;;20.70;17.65;;;21.70;99.90;;;;;;5023739;28;20497;-53
2023/06/18 07:26:10;;;;;;;20.38;17.13;;;22.00;99.90;;;;;;5022144;28;20080;-54
2023/06/18 07:28:36;;;;;;;21.52;17.98;;;22.30;99.90;;;;;;5022846;28;20050;-58
2023/06/18 07:31:02;;;;;;;19.27;17.25;;;22.40;99.90;;;;;;5022473;28;20598;-58
2023/06/18 07:33:27;;;;;;;20.40;17.77;;;22.40;99.90;;;;;;4988182;28;20050;-57
2023/06/18 07:35:53;;;;;;;19.20;17.02;;;22.60;99.90;;;;;;4986646;28;20043;-58
2023/06/18 07:38:19;;;;;;;19.98;15.43;;;22.80;99.90;;;;;;4991326;28;20050;-48
2023/06/18 07:40:44;;;;;;;18.90;15.05;;;22.90;99.90;;;;;;4993266;28;20041;-52
2023/06/18 07:43:11;;;;;;;15.88;13.80;;;23.00;99.90;;;;;;4991780;28;21126;-54
2023/06/18 07:45:36;;;;;;;18.55;14.90;;;23.40;99.90;;;;;;4997523;28;20029;-58
2023/06/18 07:48:02;;;;;;;18.27;14.85;;;23.60;99.90;;;;;;5000857;28;20057;-55
2023/06/18 07:50:28;;;;;;;16.65;14.48;;;23.80;99.90;;;;;;5000587;28;20645;-59
2023/06/18 07:52:53;;;;;;;17.23;14.88;;;23.80;99.90;;;;;;5002958;28;20419;-57
2023/06/18 07:55:19;;;;;;;17.20;14.85;;;23.80;99.90;;;;;;5002013;28;20570;-50
2023/06/18 07:57:45;;;;;;;15.90;14.20;;;23.90;99.90;;;;;;4996244;28;20112;-53
2023/06/18 08:00:11;;;;;;;15.50;13.55;;;23.90;99.90;;;;;;4987287;28;20053;-51
2023/06/18 08:02:37;;;;;;;15.27;13.68;;;24.10;99.90;;;;;;4999865;28;20112;-56
2023/06/18 08:05:02;;;;;;;16.55;14.23;;;24.20;99.90;;;;;;4993912;28;20046;-52
2023/06/18 08:07:28;;;;;;;17.05;14.23;;;24.20;99.90;;;;;;4990214;28;20098;-56
2023/06/18 08:09:54;;;;;;;17.25;13.80;;;24.30;99.90;;;;;;4988091;28;20046;-54
2023/06/18 08:12:19;;;;;;;15.40;13.15;;;24.40;99.90;;;;;;4995702;28;20038;-50
2023/06/18 08:14:47;;;;;;;15.77;13.57;;;24.50;99.90;;;;;;5006406;28;20049;-50
2023/06/18 08:17:16;;;;;;;15.52;13.10;;;24.40;99.70;;;;;;5001953;28;20042;-49
2023/06/18 08:19:44;;;;;;;15.02;13.30;;;24.30;99.90;;;;;;5001068;28;20046;-50
2023/06/18 08:22:11;;;;;;;14.52;13.02;;;24.40;99.90;;;;;;4986299;28;20059;-51
2023/06/18 08:24:37;;;;;;;16.20;12.80;;;24.60;99.90;;;;;;4987005;28;20133;-51
2023/06/18 08:27:03;;;;;;;14.35;12.85;;;24.60;99.90;;;;;;4987315;28;20135;-55
2023/06/18 08:29:28;;;;;;;15.13;13.10;;;24.70;99.90;;;;;;5000850;28;20042;-56
2023/06/18 08:31:54;;;;;;;13.65;12.32;;;24.80;99.70;;;;;;4999681;28;20038;-50
2023/06/18 08:34:20;;;;;;;15.05;12.63;;;24.80;99.70;;;;;;5001583;28;20095;-50
2023/06/18 08:36:47;;;;;;;15.18;12.55;;;25.00;99.70;;;;;;5005106;28;20096;-51
2023/06/18 08:39:14;;;;;;;14.27;11.57;;;25.10;99.40;;;;;;4989758;28;20065;-49
2023/06/18 08:41:42;;;;;;;14.20;12.00;;;25.20;98.90;;;;;;4983776;28;20050;-52
2023/06/18 08:44:08;;;;;;;14.02;12.52;;;25.30;98.70;;;;;;4983764;28;20089;-51
2023/06/18 08:46:35;;;;;;;15.13;13.30;;;25.60;98.40;;;;;;4999002;28;20038;-53
2023/06/18 08:49:02;;;;;;;17.17;12.77;;;25.60;97.60;;;;;;4983404;28;20042;-54
2023/06/18 08:51:28;;;;;;;17.35;13.73;;;25.60;97.90;;;;;;4984090;28;20093;-53
2023/06/18 08:53:59;;;;;;;15.15;13.27;;;25.70;98.00;;;;;;4981716;28;20050;-54
2023/06/18 08:56:26;;;;;;;14.35;12.13;;;25.80;97.40;;;;;;4982475;28;20910;-56
2023/06/18 08:58:58;;;;;;;15.95;13.02;;;26.00;97.30;;;;;;4983480;28;20049;-54
2023/06/18 09:01:25;;;;;;;17.05;13.30;;;26.10;97.10;;;;;;4983799;28;20420;-52
2023/06/18 09:03:53;;;;;;;14.50;12.23;;;26.10;97.20;;;;;;4983073;28;20057;-53
2023/06/18 09:06:18;;;;;;;17.65;12.43;;;26.20;96.90;;;;;;4983138;28;20051;-54
2023/06/18 09:08:46;;;;;;;15.63;12.10;;;26.40;96.80;;;;;;4983146;28;20047;-56
2023/06/18 09:11:12;;;;;;;18.27;13.15;;;26.60;96.30;;;;;;4982326;28;20038;-55
2023/06/18 09:13:42;;;;;;;17.83;11.93;;;26.70;96.10;;;;;;4985080;28;20495;-54
2023/06/18 09:16:10;;;;;;;13.82;12.15;;;26.80;96.00;;;;;;5003789;28;20089;-57
2023/06/18 09:18:36;;;;;;;14.93;12.20;;;26.90;95.60;;;;;;5002631;28;20053;-54
2023/06/18 09:21:03;;;;;;;14.30;12.15;;;26.90;94.90;;;;;;5002374;28;20235;-58
2023/06/18 09:23:29;;;;;;;15.98;12.15;;;26.90;95.00;;;;;;5002570;28;20717;-58
2023/06/18 09:25:56;;;;;;;12.23;10.93;;;26.90;94.50;;;;;;5002394;28;20034;-53
2023/06/18 09:28:24;;;;;;;14.65;12.32;;;26.90;95.00;;;;;;5001406;28;20227;-54
2023/06/18 09:30:56;;;;;;;13.68;12.00;;;27.00;93.80;;;;;;5002328;28;20204;-51
2023/06/18 09:33:35;;;;;;;13.10;11.70;;;27.00;93.30;;;;;;5002529;28;20056;-49
2023/06/18 09:36:06;;;;;;;13.88;11.52;;;26.90;93.30;;;;;;5002935;28;20042;-52
2023/06/18 09:38:37;;;;;;;13.43;12.00;;;27.20;93.90;;;;;;5002462;28;20435;-49
2023/06/18 09:41:12;;;;;;;16.08;10.68;;;27.40;93.80;;;;;;5000984;28;20042;-53
2023/06/18 09:43:40;;;;;;;15.23;11.55;;;27.50;93.40;;;;;;5002439;28;20056;-56
2023/06/18 09:46:07;;;;;;;13.02;9.98;;;27.50;93.00;;;;;;5002459;28;20037;-48
2023/06/18 09:48:34;;;;;;;12.90;10.80;;;27.70;92.70;;;;;;5001704;28;20049;-55
2023/06/18 09:51:01;;;;;;;14.18;9.80;;;27.80;92.60;;;;;;5002354;28;20141;-58
2023/06/18 09:53:26;;;;;;;11.23;9.32;;;27.80;91.80;;;;;;5002014;28;20199;-58
2023/06/18 09:55:52;;;;;;;13.65;8.68;;;27.70;91.70;;;;;;5001137;28;20607;-57
2023/06/18 09:58:18;;;;;;;12.52;9.63;;;27.80;91.80;;;;;;5001586;28;20052;-55
2023/06/18 10:01:02;;;;;;;11.55;9.90;;;28.10;92.10;;;;;;5000971;28;20412;-56
2023/06/18 10:03:29;;;;;;;9.80;8.80;;;28.30;91.10;;;;;;4981856;28;20038;-58
2023/06/18 10:05:57;;;;;;;10.25;9.15;;;28.40;91.60;;;;;;4981089;28;20588;-54
2023/06/18 10:08:23;;;;;;;10.82;9.30;;;28.50;91.40;;;;;;4982048;28;20120;-58
2023/06/18 10:10:49;;;;;;;11.25;9.88;;;28.50;88.60;;;;;;4995230;28;20084;-58
2023/06/18 10:13:15;;;;;;;10.30;9.30;;;28.20;89.40;;;;;;5016944;28;20060;-58
2023/06/18 10:15:42;;;;;;;13.13;9.45;;;28.10;90.30;;;;;;5020077;28;20041;-56
2023/06/18 10:18:11;;;;;;;11.13;9.23;;;28.20;90.50;;;;;;5019938;28;20085;-54
2023/06/18 10:20:38;;;;;;;10.15;8.70;;;28.50;90.30;;;;;;5021072;28;20045;-54
2023/06/18 10:23:09;;;;;;;9.07;8.18;;;28.90;90.40;;;;;;5021694;28;20117;-51
2023/06/18 10:25:35;;;;;;;9.13;8.15;;;29.30;90.00;;;;;;5021325;28;20042;-59
2023/06/18 10:28:02;;;;;;;9.23;7.68;;;29.50;88.30;;;;;;5020310;28;20060;-54
2023/06/18 10:30:28;;;;;;;10.77;8.38;;;29.60;88.20;;;;;;5021200;28;20484;-58
2023/06/18 10:32:54;;;;;;;8.82;7.93;;;29.70;88.10;;;;;;5016262;28;20794;-57
2023/06/18 10:35:20;;;;;;;11.98;8.57;;;29.70;87.00;;;;;;5000836;28;20045;-59
2023/06/18 10:37:46;;;;;;;10.45;8.52;;;29.80;87.70;;;;;;5001529;28;20053;-58
2023/06/18 10:40:12;;;;;;;10.60;8.70;;;29.90;85.60;;;;;;5001355;28;20403;-51
2023/06/18 10:42:39;;;;;;;9.45;8.45;;;29.60;85.20;;;;;;5000413;28;20046;-54
2023/06/18 10:45:15;;;;;;;11.13;8.73;;;29.40;85.70;;;;;;5000668;28;20123;-55
2023/06/18 10:47:42;;;;;;;8.70;7.85;;;29.50;86.30;;;;;;5001433;28;20034;-56
2023/06/18 10:50:07;;;;;;;8.65;7.78;;;29.70;86.20;;;;;;5001151;28;20393;-52
2023/06/18 10:52:36;;;;;;;10.85;7.97;;;29.90;86.00;;;;;;5000973;28;20054;-57
2023/06/18 10:55:14;;;;;;;10.57;7.53;;;30.00;86.30;;;;;;5001620;28;20404;-54
2023/06/18 10:57:44;;;;;;;9.30;8.25;;;30.20;85.20;;;;;;4999898;28;20412;-58
2023/06/18 11:00:29;;;;;;;10.55;7.65;;;30.30;85.80;;;;;;5001005;28;20053;-52
2023/06/18 11:03:01;;;;;;;10.07;7.78;;;30.40;85.90;;;;;;4999526;28;20058;-52
2023/06/18 11:05:34;;;;;;;12.45;8.02;;;30.40;81.80;;;;;;5000726;28;20054;-58
2023/06/18 11:08:06;;;;;;;8.38;7.47;;;30.40;80.90;;;;;;5000886;28;20050;-54
2023/06/18 11:10:33;;;;;;;9.85;7.60;;;30.10;82.10;;;;;;5000744;28;20065;-58
2023/06/18 11:13:06;;;;;;;10.90;7.53;;;30.20;82.20;;;;;;5000347;28;20034;-49
2023/06/18 11:15:33;;;;;;;8.20;7.25;;;30.50;82.20;;;;;;5001640;28;20295;-54
2023/06/18 11:18:02;;;;;;;8.93;6.57;;;30.60;82.20;;;;;;5002575;28;20041;-55
2023/06/18 11:20:34;;;;;;;8.45;7.55;;;30.80;82.90;;;;;;5005003;28;20125;-58
2023/06/18 11:23:01;;;;;;;8.30;7.35;;;30.60;81.60;;;;;;5005018;28;20172;-57
2023/06/18 11:25:28;;;;;;;7.43;6.72;;;30.60;82.90;;;;;;5004560;28;20045;-54
2023/06/18 11:27:58;;;;;;;9.43;7.90;;;30.70;83.00;;;;;;5004254;28;20633;-52
2023/06/18 11:30:24;;;;;;;7.95;7.10;;;30.70;82.10;;;;;;5005024;28;20068;-56
2023/06/18 11:32:49;;;;;;;9.75;6.82;;;30.70;82.10;;;;;;5004022;28;20037;-57
2023/06/18 11:35:15;;;;;;;8.77;7.13;;;30.60;81.80;;;;;;5004979;28;20117;-54
2023/06/18 11:37:43;;;;;;;10.90;6.97;;;30.60;82.10;;;;;;5004828;28;20060;-58
2023/06/18 11:40:10;;;;;;;7.85;7.00;;;30.70;82.00;;;;;;5004750;28;20049;-59
2023/06/18 11:42:48;;;;;;;9.60;7.30;;;30.90;81.60;;;;;;5013015;28;20148;-55
2023/06/18 11:45:14;;;;;;;7.75;6.40;;;31.00;80.70;;;;;;5023956;28;20079;-54
2023/06/18 11:47:48;;;;;;;9.93;7.43;;;31.10;80.80;;;;;;5022576;28;20322;-54
2023/06/18 11:50:15;;;;;;;7.50;6.70;;;31.10;79.80;;;;;;5023134;28;20041;-53
2023/06/18 11:52:41;;;;;;;9.15;7.28;;;31.10;79.60;;;;;;5024147;28;20288;-52
2023/06/18 11:55:07;;;;;;;7.68;6.88;;;31.20;78.70;;;;;;5023995;28;20045;-53
2023/06/18 11:57:33;;;;;;;9.50;6.93;;;31.20;77.20;;;;;;5023794;28;20045;-55
2023/06/18 11:59:59;;;;;;;8.35;6.93;;;31.10;78.80;;;;;;5024589;28;20305;-54
2023/06/18 12:02:27;;;;;;;8.43;7.15;;;31.10;79.30;;;;;;5023937;28;20344;-55
2023/06/18 12:04:57;;;;;;;8.57;6.97;;;31.10;79.50;;;;;;5038604;28;20042;-57
2023/06/18 12:07:25;;;;;;;7.82;6.95;;;31.10;77.60;;;;;;5023999;28;20127;-57
2023/06/18 12:09:52;;;;;;;8.10;6.95;;;30.90;77.30;;;;;;5023906;28;20084;-53
2023/06/18 12:12:42;;;;;;;7.80;7.00;;;30.60;77.90;;;;;;5024337;28;20045;-49
2023/06/18 12:15:12;;;;;;;8.32;6.93;;;30.60;79.00;;;;;;5027052;28;20050;-58
2023/06/18 12:18:10;;;;;;;7.63;6.93;;;30.50;77.70;;;;;;5026714;28;20049;-58
2023/06/18 12:20:35;;;;;;;8.20;7.40;;;30.60;78.80;;;;;;5025153;28;20052;-55
2023/06/18 12:23:02;;;;;;;9.25;7.40;;;30.70;78.50;;;;;;5025394;28;20046;-53
2023/06/18 12:25:30;;;;;;;15.02;7.25;;;30.70;77.10;;;;;;5026160;28;20092;-56
2023/06/18 12:27:57;;;;;;;7.85;7.15;;;30.50;77.90;;;;;;5024616;28;20077;-56
2023/06/18 12:30:28;;;;;;;8.70;7.07;;;30.40;77.30;;;;;;5024935;28;20451;-53